Mexico City Airport, Mexico

5:41 PM CST on December 28, 2014 (GMT -0600)
Lic Adolfo Lopez Mateos International | Change Station
CLOSE
Current Station
Airport
Location: Toluca Jose Maria,
Elevation: 8451 ft
Nearby Weather Stations

Elev 8451 ft 19.34 °N, 99.57 °W | Updated 54 minutes ago

Mostly Cloudy
Mostly Cloudy
66 °F
Feels Like 66 °F
N
8
Wind Variable Wind from SSE

Today
High -- | Low -- °F
--% Chance of Precip.
Yesterday
High -- | Low -- °F
Precip. -- in
7:08 AM 6:07 PM
First Quarter, 52% visible
Pressure 30.32 in
Visibility 7.0 miles
Clouds Scattered Clouds 1500 ft
Mostly Cloudy 20000 ft
Dew Point 34 °F
Humidity 30%
Rainfall 0.00 in
Snow Depth Not available.
UV 1 out of 12
Pollen Not available.
Air Quality Not available.
Flu Activity Not available.
METAR MMTO 282247Z 15007KT 7SM SCT015TCU BKN200 19/01 A3032 RMK 8/202 HZY

More Conditions Fewer Conditions

Pressure 30.32 in
Visibility 7.0 miles
Clouds Scattered Clouds 1500 ft
Mostly Cloudy 20000 ft
Dew Point 34 °F
Humidity 30%
Rainfall 0.00 in
Snow Depth Not available.
UV 1 out of 12
Pollen Not available.
Air Quality Not available.
Flu Activity Not available.
METAR MMTO 282247Z 15007KT 7SM SCT015TCU BKN200 19/01 A3032 RMK 8/202 HZY

More Conditions Fewer Conditions

10-Day Weather Forecast

Almanac

Astronomy

Dec. 28, 2014 Rise Set
Actual Time
Civil Twilight
Nautical Twilight
Astronomical Twilight
Moon
Length of Visible Light
Length of Day
Tomorrow will be .
, % of the Moon is Illuminated

Today's Extremes

Country Highs Country Lows

Community

WunderPhotos

Upload Photos

1,781,460 photos uploaded!

WunderBlogs® & News

Nearby

Air Quality

  Air Quality AQ Index Pollutant
Not available.

Snow Depth

Station Depth Elevation

Earthquake Activity

City Distance Mag. Time & Date
Minimum magnitude displayed is 2.5.

Coastal Water Temperatures

Place Temperature

Nearby Weather Stations